sensor_id;sensor_type;location;lat;lon;timestamp;pressure;altitude;pressure_sealevel;temperature;humidity
74675;BME280;63200;48.810;12.352;2023-10-09T00:01:06;98129.59;;;11.31;100.00
74675;BME280;63200;48.810;12.352;2023-10-09T00:03:45;98125.25;;;11.35;100.00
74675;BME280;63200;48.810;12.352;2023-10-09T00:06:15;98120.09;;;11.28;100.00
74675;BME280;63200;48.810;12.352;2023-10-09T00:08:40;98123.06;;;11.27;100.00
74675;BME280;63200;48.810;12.352;2023-10-09T00:11:10;98073.91;;;10.92;100.00
74675;BME280;63200;48.810;12.352;2023-10-09T00:13:45;98116.59;;;11.02;100.00
74675;BME280;63200;48.810;12.352;2023-10-09T00:16:19;98125.81;;;11.01;100.00
74675;BME280;63200;48.810;12.352;2023-10-09T00:19:05;98122.81;;;11.03;100.00
74675;BME280;63200;48.810;12.352;2023-10-09T00:21:48;98116.81;;;11.00;100.00
74675;BME280;63200;48.810;12.352;2023-10-09T00:24:13;98109.50;;;10.96;100.00
74675;BME280;63200;48.810;12.352;2023-10-09T00:26:45;98116.28;;;10.88;100.00
74675;BME280;63200;48.810;12.352;2023-10-09T00:29:12;98121.97;;;10.76;100.00
74675;BME280;63200;48.810;12.352;2023-10-09T00:31:56;98114.91;;;10.70;100.00
74675;BME280;63200;48.810;12.352;2023-10-09T00:34:30;98106.47;;;10.56;100.00
74675;BME280;63200;48.810;12.352;2023-10-09T00:37:05;98106.75;;;10.55;100.00
74675;BME280;63200;48.810;12.352;2023-10-09T00:39:34;98112.16;;;10.49;100.00
74675;BME280;63200;48.810;12.352;2023-10-09T00:42:08;98100.47;;;10.39;100.00
74675;BME280;63200;48.810;12.352;2023-10-09T00:44:38;98097.72;;;10.33;100.00
74675;BME280;63200;48.810;12.352;2023-10-09T00:47:10;98058.59;;;10.14;100.00
74675;BME280;63200;48.810;12.352;2023-10-09T00:49:59;98088.78;;;10.38;100.00
74675;BME280;63200;48.810;12.352;2023-10-09T00:52:31;98097.50;;;10.45;100.00
74675;BME280;63200;48.810;12.352;2023-10-09T00:55:01;98077.94;;;10.38;100.00
74675;BME280;63200;48.810;12.352;2023-10-09T00:57:32;98085.00;;;10.44;100.00
74675;BME280;63200;48.810;12.352;2023-10-09T01:00:03;98092.63;;;10.53;100.00
74675;BME280;63200;48.810;12.352;2023-10-09T01:02:36;98087.75;;;10.60;100.00
74675;BME280;63200;48.810;12.352;2023-10-09T01:05:03;98084.78;;;10.72;100.00
74675;BME280;63200;48.810;12.352;2023-10-09T01:07:51;98077.44;;;10.72;100.00
74675;BME280;63200;48.810;12.352;2023-10-09T01:10:23;98092.09;;;10.66;100.00
74675;BME280;63200;48.810;12.352;2023-10-09T01:12:50;98080.69;;;10.64;100.00
74675;BME280;63200;48.810;12.352;2023-10-09T01:15:20;98079.63;;;10.65;100.00
74675;BME280;63200;48.810;12.352;2023-10-09T01:18:01;98031.78;;;10.38;100.00
74675;BME280;63200;48.810;12.352;2023-10-09T01:20:27;98074.16;;;10.70;100.00
74675;BME280;63200;48.810;12.352;2023-10-09T01:23:06;98080.16;;;10.72;100.00
74675;BME280;63200;48.810;12.352;2023-10-09T01:25:33;98069.03;;;10.74;100.00
74675;BME280;63200;48.810;12.352;2023-10-09T01:28:07;98064.41;;;10.74;100.00
74675;BME280;63200;48.810;12.352;2023-10-09T01:30:33;98053.56;;;10.74;100.00
74675;BME280;63200;48.810;12.352;2023-10-09T01:32:58;98053.00;;;10.82;100.00
74675;BME280;63200;48.810;12.352;2023-10-09T01:35:37;98044.59;;;10.84;100.00
74675;BME280;63200;48.810;12.352;2023-10-09T01:38:11;98046.50;;;10.78;100.00
74675;BME280;63200;48.810;12.352;2023-10-09T01:40:39;98055.44;;;10.74;100.00
74675;BME280;63200;48.810;12.352;2023-10-09T01:43:05;97991.09;;;10.43;100.00
74675;BME280;63200;48.810;12.352;2023-10-09T01:45:35;98034.00;;;10.72;100.00
74675;BME280;63200;48.810;12.352;2023-10-09T01:48:07;98025.28;;;10.70;100.00
74675;BME280;63200;48.810;12.352;2023-10-09T01:50:33;98028.28;;;10.69;100.00
74675;BME280;63200;48.810;12.352;2023-10-09T01:53:03;98020.13;;;10.69;100.00
74675;BME280;63200;48.810;12.352;2023-10-09T01:55:31;98012.81;;;10.64;100.00
74675;BME280;63200;48.810;12.352;2023-10-09T01:58:06;98008.75;;;10.56;100.00
74675;BME280;63200;48.810;12.352;2023-10-09T02:00:42;98014.97;;;10.52;100.00
74675;BME280;63200;48.810;12.352;2023-10-09T02:03:09;97967.72;;;10.32;100.00
74675;BME280;63200;48.810;12.352;2023-10-09T02:05:37;98002.75;;;10.54;100.00
74675;BME280;63200;48.810;12.352;2023-10-09T02:08:03;98006.31;;;10.55;100.00
74675;BME280;63200;48.810;12.352;2023-10-09T02:10:29;97997.06;;;10.56;100.00
74675;BME280;63200;48.810;12.352;2023-10-09T02:13:02;97998.69;;;10.57;100.00
74675;BME280;63200;48.810;12.352;2023-10-09T02:15:38;97996.81;;;10.57;100.00
74675;BME280;63200;48.810;12.352;2023-10-09T02:18:17;97998.41;;;10.58;100.00
74675;BME280;63200;48.810;12.352;2023-10-09T02:23:38;97993.81;;;10.59;100.00
74675;BME280;63200;48.810;12.352;2023-10-09T02:26:17;97993.53;;;10.55;100.00
74675;BME280;63200;48.810;12.352;2023-10-09T02:28:58;97956.31;;;10.30;100.00
74675;BME280;63200;48.810;12.352;2023-10-09T02:31:34;97986.75;;;10.58;100.00
74675;BME280;63200;48.810;12.352;2023-10-09T02:34:06;97986.47;;;10.59;100.00
74675;BME280;63200;48.810;12.352;2023-10-09T02:36:33;97966.94;;;10.52;100.00
74675;BME280;63200;48.810;12.352;2023-10-09T02:39:07;97988.09;;;10.55;100.00
74675;BME280;63200;48.810;12.352;2023-10-09T02:42:07;97981.31;;;10.53;100.00
74675;BME280;63200;48.810;12.352;2023-10-09T02:44:48;97978.88;;;10.51;100.00
74675;BME280;63200;48.810;12.352;2023-10-09T02:47:20;97969.38;;;10.48;100.00
74675;BME280;63200;48.810;12.352;2023-10-09T02:49:49;97974.78;;;10.43;100.00
74675;BME280;63200;48.810;12.352;2023-10-09T02:52:16;97924.28;;;10.01;100.00
74675;BME280;63200;48.810;12.352;2023-10-09T02:54:47;97968.81;;;10.31;100.00
74675;BME280;63200;48.810;12.352;2023-10-09T02:57:13;97964.72;;;10.28;100.00
74675;BME280;63200;48.810;12.352;2023-10-09T02:59:48;97951.94;;;10.18;100.00
74675;BME280;63200;48.810;12.352;2023-10-09T03:02:17;97956.84;;;10.22;100.00
74675;BME280;63200;48.810;12.352;2023-10-09T03:04:43;97909.88;;;9.80;100.00
74675;BME280;63200;48.810;12.352;2023-10-09T03:07:08;97953.28;;;10.16;100.00
74675;BME280;63200;48.810;12.352;2023-10-09T03:09:35;97956.84;;;10.16;100.00
74675;BME280;63200;48.810;12.352;2023-10-09T03:12:02;97946.28;;;10.20;100.00
74675;BME280;63200;48.810;12.352;2023-10-09T03:14:29;97942.72;;;10.20;100.00
74675;BME280;63200;48.810;12.352;2023-10-09T03:16:56;97947.88;;;10.21;100.00
74675;BME280;63200;48.810;12.352;2023-10-09T03:19:24;97904.19;;;9.97;100.00
74675;BME280;63200;48.810;12.352;2023-10-09T03:21:50;97928.09;;;10.21;100.00
74675;BME280;63200;48.810;12.352;2023-10-09T03:24:15;97943.81;;;10.24;100.00
74675;BME280;63200;48.810;12.352;2023-10-09T03:26:41;97931.06;;;10.24;100.00
74675;BME280;63200;48.810;12.352;2023-10-09T03:29:06;97938.38;;;10.24;100.00
74675;BME280;63200;48.810;12.352;2023-10-09T03:31:32;97939.47;;;10.28;100.00
74675;BME280;63200;48.810;12.352;2023-10-09T03:33:59;97922.94;;;10.19;100.00
74675;BME280;63200;48.810;12.352;2023-10-09T03:36:24;97927.84;;;10.38;100.00
74675;BME280;63200;48.810;12.352;2023-10-09T03:38:54;97935.16;;;10.42;100.00
74675;BME280;63200;48.810;12.352;2023-10-09T03:41:23;97932.72;;;10.41;100.00
74675;BME280;63200;48.810;12.352;2023-10-09T03:43:52;97930.00;;;10.41;100.00
74675;BME280;63200;48.810;12.352;2023-10-09T03:46:17;97922.16;;;10.44;100.00
74675;BME280;63200;48.810;12.352;2023-10-09T03:48:50;97928.38;;;10.40;100.00
74675;BME280;63200;48.810;12.352;2023-10-09T03:51:22;97919.69;;;10.43;100.00
74675;BME280;63200;48.810;12.352;2023-10-09T03:53:51;97924.06;;;10.44;100.00
74675;BME280;63200;48.810;12.352;2023-10-09T03:56:18;97928.38;;;10.45;100.00
74675;BME280;63200;48.810;12.352;2023-10-09T03:58:48;97932.44;;;10.47;100.00
74675;BME280;63200;48.810;12.352;2023-10-09T04:01:21;97936.78;;;10.48;100.00
74675;BME280;63200;48.810;12.352;2023-10-09T04:03:54;97936.00;;;10.48;100.00
74675;BME280;63200;48.810;12.352;2023-10-09T04:06:23;97924.31;;;10.42;100.00
74675;BME280;63200;48.810;12.352;2023-10-09T04:08:54;97933.00;;;10.44;100.00
74675;BME280;63200;48.810;12.352;2023-10-09T04:11:20;97933.00;;;10.44;100.00
74675;BME280;63200;48.810;12.352;2023-10-09T04:13:49;97935.16;;;10.42;100.00
74675;BME280;63200;48.810;12.352;2023-10-09T04:16:15;97929.22;;;10.40;100.00
74675;BME280;63200;48.810;12.352;2023-10-09T04:18:58;97875.72;;;9.94;100.00
74675;BME280;63200;48.810;12.352;2023-10-09T04:21:24;97926.19;;;10.31;100.00
74675;BME280;63200;48.810;12.352;2023-10-09T04:24:00;97918.88;;;10.27;100.00
74675;BME280;63200;48.810;12.352;2023-10-09T04:26:35;97931.34;;;10.23;100.00
74675;BME280;63200;48.810;12.352;2023-10-09T04:29:03;97863.22;;;9.88;100.00
74675;BME280;63200;48.810;12.352;2023-10-09T04:31:29;97922.09;;;10.24;100.00
74675;BME280;63200;48.810;12.352;2023-10-09T04:34:00;97902.59;;;10.22;100.00
74675;BME280;63200;48.810;12.352;2023-10-09T04:37:01;97916.66;;;10.18;100.00
74675;BME280;63200;48.810;12.352;2023-10-09T04:39:39;97889.28;;;10.05;100.00
74675;BME280;63200;48.810;12.352;2023-10-09T04:42:13;97916.69;;;10.24;100.00
74675;BME280;63200;48.810;12.352;2023-10-09T04:44:50;97920.50;;;10.12;100.00
74675;BME280;63200;48.810;12.352;2023-10-09T04:47:39;97897.69;;;10.18;100.00
74675;BME280;63200;48.810;12.352;2023-10-09T04:50:15;97900.41;;;10.13;100.00
74675;BME280;63200;48.810;12.352;2023-10-09T04:53:03;97883.31;;;10.13;100.00
74675;BME280;63200;48.810;12.352;2023-10-09T04:55:43;97858.34;;;9.95;100.00
74675;BME280;63200;48.810;12.352;2023-10-09T04:58:24;97880.59;;;10.13;100.00
74675;BME280;63200;48.810;12.352;2023-10-09T05:00:53;97864.31;;;10.08;100.00
74675;BME280;63200;48.810;12.352;2023-10-09T05:03:25;97878.72;;;10.03;100.00
74675;BME280;63200;48.810;12.352;2023-10-09T05:05:53;97867.84;;;10.03;100.00
74675;BME280;63200;48.810;12.352;2023-10-09T05:08:30;97876.81;;;10.04;100.00
74675;BME280;63200;48.810;12.352;2023-10-09T05:11:02;97869.22;;;10.06;100.00
74675;BME280;63200;48.810;12.352;2023-10-09T05:13:29;97826.06;;;9.78;100.00
74675;BME280;63200;48.810;12.352;2023-10-09T05:16:15;97860.53;;;9.98;100.00
74675;BME280;63200;48.810;12.352;2023-10-09T05:18:42;97859.72;;;9.98;100.00
74675;BME280;63200;48.810;12.352;2023-10-09T05:21:10;97849.94;;;9.92;100.00
74675;BME280;63200;48.810;12.352;2023-10-09T05:23:41;97864.59;;;9.91;100.00
74675;BME280;63200;48.810;12.352;2023-10-09T05:26:14;97857.00;;;9.93;100.00
74675;BME280;63200;48.810;12.352;2023-10-09T05:29:02;97854.56;;;9.91;100.00
74675;BME280;63200;48.810;12.352;2023-10-09T05:31:47;97857.00;;;9.88;100.00
74675;BME280;63200;48.810;12.352;2023-10-09T05:34:28;97862.44;;;9.93;100.00
74675;BME280;63200;48.810;12.352;2023-10-09T05:37:06;97867.84;;;9.98;100.00
74675;BME280;63200;48.810;12.352;2023-10-09T05:40:05;97858.88;;;9.97;100.00
74675;BME280;63200;48.810;12.352;2023-10-09T05:42:43;97867.31;;;9.86;100.00
74675;BME280;63200;48.810;12.352;2023-10-09T05:45:17;97867.84;;;9.82;100.00
74675;BME280;63200;48.810;12.352;2023-10-09T05:47:47;97871.91;;;9.85;100.00
74675;BME280;63200;48.810;12.352;2023-10-09T05:50:28;97853.22;;;9.89;100.00
74675;BME280;63200;48.810;12.352;2023-10-09T05:52:55;97857.00;;;9.93;100.00
74675;BME280;63200;48.810;12.352;2023-10-09T05:55:22;97864.88;;;9.94;100.00
74675;BME280;63200;48.810;12.352;2023-10-09T05:58:03;97864.88;;;10.05;100.00
74675;BME280;63200;48.810;12.352;2023-10-09T06:00:34;97875.16;;;10.18;100.00
74675;BME280;63200;48.810;12.352;2023-10-09T06:03:18;97884.13;;;10.29;100.00
74675;BME280;63200;48.810;12.352;2023-10-09T06:05:48;97891.22;;;10.40;100.00
74675;BME280;63200;48.810;12.352;2023-10-09T06:08:30;97892.28;;;10.49;100.00
74675;BME280;63200;48.810;12.352;2023-10-09T06:11:09;97903.66;;;10.57;100.00
74675;BME280;63200;48.810;12.352;2023-10-09T06:13:53;97907.16;;;10.67;100.00
74675;BME280;63200;48.810;12.352;2023-10-09T06:16:35;97912.84;;;10.92;100.00
74675;BME280;63200;48.810;12.352;2023-10-09T06:21:51;97918.94;;;11.83;100.00
74675;BME280;63200;48.810;12.352;2023-10-09T06:24:17;97915.78;;;12.11;100.00
74675;BME280;63200;48.810;12.352;2023-10-09T06:26:46;97917.63;;;12.21;100.00
74675;BME280;63200;48.810;12.352;2023-10-09T06:29:39;97923.97;;;12.11;100.00
74675;BME280;63200;48.810;12.352;2023-10-09T06:32:13;97928.69;;;11.90;100.00
74675;BME280;63200;48.810;12.352;2023-10-09T06:34:45;97898.41;;;11.62;100.00
74675;BME280;63200;48.810;12.352;2023-10-09T06:37:14;97875.28;;;11.64;100.00
74675;BME280;63200;48.810;12.352;2023-10-09T06:40:00;97909.75;;;12.19;100.00
74675;BME280;63200;48.810;12.352;2023-10-09T06:42:26;97877.50;;;12.31;100.00
74675;BME280;63200;48.810;12.352;2023-10-09T06:47:41;97921.13;;;13.77;100.00
74675;BME280;63200;48.810;12.352;2023-10-09T06:50:10;97919.16;;;14.02;100.00
74675;BME280;63200;48.810;12.352;2023-10-09T06:52:45;97874.53;;;13.73;100.00
74675;BME280;63200;48.810;12.352;2023-10-09T06:55:26;97918.78;;;13.89;100.00
74675;BME280;63200;48.810;12.352;2023-10-09T06:58:00;97921.97;;;13.77;100.00
74675;BME280;63200;48.810;12.352;2023-10-09T07:00:41;97913.91;;;13.67;100.00
74675;BME280;63200;48.810;12.352;2023-10-09T07:03:39;97917.31;;;13.59;100.00
74675;BME280;63200;48.810;12.352;2023-10-09T07:06:25;97876.97;;;13.31;100.00
74675;BME280;63200;48.810;12.352;2023-10-09T07:09:12;97922.22;;;13.57;100.00
74675;BME280;63200;48.810;12.352;2023-10-09T07:11:41;97914.28;;;13.60;100.00
74675;BME280;63200;48.810;12.352;2023-10-09T07:14:17;97926.22;;;13.64;100.00
74675;BME280;63200;48.810;12.352;2023-10-09T07:17:02;97930.16;;;13.77;100.00
74675;BME280;63200;48.810;12.352;2023-10-09T07:19:41;97929.03;;;13.97;100.00
74675;BME280;63200;48.810;12.352;2023-10-09T07:22:07;97932.13;;;14.10;100.00
74675;BME280;63200;48.810;12.352;2023-10-09T07:24:54;97934.41;;;14.22;100.00
74675;BME280;63200;48.810;12.352;2023-10-09T07:27:27;97935.91;;;14.47;100.00
74675;BME280;63200;48.810;12.352;2023-10-09T07:30:13;97931.28;;;14.80;100.00
74675;BME280;63200;48.810;12.352;2023-10-09T07:33:05;97932.69;;;14.78;100.00
74675;BME280;63200;48.810;12.352;2023-10-09T07:35:42;97887.75;;;14.51;100.00
74675;BME280;63200;48.810;12.352;2023-10-09T07:38:07;97930.66;;;14.83;100.00
74675;BME280;63200;48.810;12.352;2023-10-09T07:40:37;97948.38;;;14.86;100.00
74675;BME280;63200;48.810;12.352;2023-10-09T07:43:34;97937.16;;;14.88;100.00
74675;BME280;63200;48.810;12.352;2023-10-09T07:46:14;97938.66;;;14.80;100.00
74675;BME280;63200;48.810;12.352;2023-10-09T07:48:59;97932.69;;;14.59;100.00
74675;BME280;63200;48.810;12.352;2023-10-09T07:51:26;97930.34;;;14.52;100.00
74675;BME280;63200;48.810;12.352;2023-10-09T07:53:59;97892.50;;;14.12;100.00
74675;BME280;63200;48.810;12.352;2023-10-09T07:59:07;97944.03;;;14.52;100.00
74675;BME280;63200;48.810;12.352;2023-10-09T08:01:37;97946.66;;;14.57;100.00
74675;BME280;63200;48.810;12.352;2023-10-09T08:04:03;97962.69;;;14.64;100.00
74675;BME280;63200;48.810;12.352;2023-10-09T08:06:38;97957.69;;;14.71;100.00
74675;BME280;63200;48.810;12.352;2023-10-09T08:09:04;97958.81;;;14.84;100.00
74675;BME280;63200;48.810;12.352;2023-10-09T08:11:44;97933.94;;;14.99;100.00
74675;BME280;63200;48.810;12.352;2023-10-09T08:14:13;97962.09;;;15.56;100.00
74675;BME280;63200;48.810;12.352;2023-10-09T08:16:51;97956.19;;;16.27;100.00
74675;BME280;63200;48.810;12.352;2023-10-09T08:19:37;97961.28;;;16.65;100.00
74675;BME280;63200;48.810;12.352;2023-10-09T08:22:17;97957.84;;;16.82;100.00
74675;BME280;63200;48.810;12.352;2023-10-09T08:24:49;97955.22;;;16.99;100.00
74675;BME280;63200;48.810;12.352;2023-10-09T08:27:21;97911.50;;;16.72;100.00
74675;BME280;63200;48.810;12.352;2023-10-09T08:30:13;97957.13;;;16.90;100.00
74675;BME280;63200;48.810;12.352;2023-10-09T08:32:45;97899.19;;;16.60;100.00
74675;BME280;63200;48.810;12.352;2023-10-09T08:35:36;97952.00;;;16.97;100.00
74675;BME280;63200;48.810;12.352;2023-10-09T08:38:15;97954.13;;;17.01;100.00
74675;BME280;63200;48.810;12.352;2023-10-09T08:40:43;97955.03;;;16.96;100.00
74675;BME280;63200;48.810;12.352;2023-10-09T08:43:19;97949.53;;;17.27;100.00
74675;BME280;63200;48.810;12.352;2023-10-09T08:45:54;97881.50;;;16.98;100.00
74675;BME280;63200;48.810;12.352;2023-10-09T08:48:26;97910.38;;;17.44;100.00
74675;BME280;63200;48.810;12.352;2023-10-09T08:50:53;97930.50;;;17.89;100.00
74675;BME280;63200;48.810;12.352;2023-10-09T08:53:23;97922.28;;;18.06;99.87
74675;BME280;63200;48.810;12.352;2023-10-09T08:55:58;97967.47;;;18.88;91.57
74675;BME280;63200;48.810;12.352;2023-10-09T08:58:24;97967.22;;;19.28;92.03
74675;BME280;63200;48.810;12.352;2023-10-09T09:01:02;97959.84;;;19.79;89.66
74675;BME280;63200;48.810;12.352;2023-10-09T09:03:41;97972.31;;;20.49;84.87
74675;BME280;63200;48.810;12.352;2023-10-09T09:06:08;97961.44;;;20.86;77.44
74675;BME280;63200;48.810;12.352;2023-10-09T09:08:34;97977.03;;;20.70;79.08
74675;BME280;63200;48.810;12.352;2023-10-09T09:11:09;97983.34;;;20.28;74.64
74675;BME280;63200;48.810;12.352;2023-10-09T09:16:18;97989.28;;;20.18;80.21
74675;BME280;63200;48.810;12.352;2023-10-09T09:21:42;97982.94;;;20.17;72.84
74675;BME280;63200;48.810;12.352;2023-10-09T09:24:11;97975.69;;;20.12;70.84
74675;BME280;63200;48.810;12.352;2023-10-09T09:26:46;97984.47;;;19.85;70.51
74675;BME280;63200;48.810;12.352;2023-10-09T09:29:15;97991.31;;;19.40;68.92
74675;BME280;63200;48.810;12.352;2023-10-09T09:31:53;97984.28;;;19.12;69.32
74675;BME280;63200;48.810;12.352;2023-10-09T09:34:18;97975.78;;;18.61;69.50
74675;BME280;63200;48.810;12.352;2023-10-09T09:36:54;97986.91;;;18.65;71.74
74675;BME280;63200;48.810;12.352;2023-10-09T09:39:29;97983.69;;;18.72;71.49
74675;BME280;63200;48.810;12.352;2023-10-09T09:41:59;97984.00;;;18.96;69.76
74675;BME280;63200;48.810;12.352;2023-10-09T09:44:33;97937.88;;;18.76;69.39
74675;BME280;63200;48.810;12.352;2023-10-09T09:47:09;97952.75;;;18.84;68.18
74675;BME280;63200;48.810;12.352;2023-10-09T09:49:40;97959.06;;;18.84;68.86
74675;BME280;63200;48.810;12.352;2023-10-09T09:52:06;97967.47;;;18.96;68.99
74675;BME280;63200;48.810;12.352;2023-10-09T09:54:36;97962.59;;;19.11;70.83
74675;BME280;63200;48.810;12.352;2023-10-09T09:57:03;97969.22;;;19.10;70.43
74675;BME280;63200;48.810;12.352;2023-10-09T09:59:37;97969.88;;;19.07;70.56
74675;BME280;63200;48.810;12.352;2023-10-09T10:02:07;97965.69;;;19.01;70.10
74675;BME280;63200;48.810;12.352;2023-10-09T10:04:38;97973.09;;;19.18;69.30
74675;BME280;63200;48.810;12.352;2023-10-09T10:07:06;97970.50;;;19.21;69.14
74675;BME280;63200;48.810;12.352;2023-10-09T10:09:41;97937.81;;;19.11;68.12
74675;BME280;63200;48.810;12.352;2023-10-09T10:12:10;97990.81;;;19.38;67.65
74675;BME280;63200;48.810;12.352;2023-10-09T10:14:58;97993.22;;;19.48;67.74
74675;BME280;63200;48.810;12.352;2023-10-09T10:20:28;97983.63;;;19.54;67.18
74675;BME280;63200;48.810;12.352;2023-10-09T10:23:17;97983.53;;;19.72;65.84
74675;BME280;63200;48.810;12.352;2023-10-09T10:25:44;97968.75;;;19.46;66.34
74675;BME280;63200;48.810;12.352;2023-10-09T10:28:26;97996.75;;;19.48;67.24
74675;BME280;63200;48.810;12.352;2023-10-09T10:31:08;97988.69;;;19.43;68.22
74675;BME280;63200;48.810;12.352;2023-10-09T10:36:21;97950.88;;;19.23;66.54
74675;BME280;63200;48.810;12.352;2023-10-09T10:39:01;97987.41;;;19.71;65.52
74675;BME280;63200;48.810;12.352;2023-10-09T10:41:30;97987.47;;;19.62;67.06
74675;BME280;63200;48.810;12.352;2023-10-09T10:44:02;97990.53;;;19.30;65.59
74675;BME280;63200;48.810;12.352;2023-10-09T10:46:59;97984.38;;;19.25;69.34
74675;BME280;63200;48.810;12.352;2023-10-09T10:49:27;97988.97;;;19.12;68.16
74675;BME280;63200;48.810;12.352;2023-10-09T10:52:02;97982.66;;;19.11;69.70
74675;BME280;63200;48.810;12.352;2023-10-09T10:54:41;97976.63;;;19.18;68.34
74675;BME280;63200;48.810;12.352;2023-10-09T10:59:56;97983.03;;;19.01;70.51
74675;BME280;63200;48.810;12.352;2023-10-09T11:02:43;97980.91;;;18.98;71.65
74675;BME280;63200;48.810;12.352;2023-10-09T11:05:09;97967.19;;;18.72;69.86
74675;BME280;63200;48.810;12.352;2023-10-09T11:07:48;97964.41;;;18.72;70.86
74675;BME280;63200;48.810;12.352;2023-10-09T11:10:21;97955.41;;;18.54;71.45
74675;BME280;63200;48.810;12.352;2023-10-09T11:12:53;97968.66;;;18.60;73.72
74675;BME280;63200;48.810;12.352;2023-10-09T11:15:36;97960.91;;;18.45;74.27
74675;BME280;63200;48.810;12.352;2023-10-09T11:18:13;97934.09;;;17.98;79.28
74675;BME280;63200;48.810;12.352;2023-10-09T11:20:44;97978.22;;;18.19;81.64
74675;BME280;63200;48.810;12.352;2023-10-09T11:23:43;97978.34;;;18.05;87.45
74675;BME280;63200;48.810;12.352;2023-10-09T11:26:24;97982.31;;;17.81;86.88
74675;BME280;63200;48.810;12.352;2023-10-09T11:29:12;97985.72;;;17.78;89.44
74675;BME280;63200;48.810;12.352;2023-10-09T11:31:57;97989.91;;;17.76;91.50
74675;BME280;63200;48.810;12.352;2023-10-09T11:34:25;97980.69;;;17.72;94.43
74675;BME280;63200;48.810;12.352;2023-10-09T11:39:32;97977.81;;;17.86;93.30
74675;BME280;63200;48.810;12.352;2023-10-09T11:42:07;97996.72;;;17.87;94.47
74675;BME280;63200;48.810;12.352;2023-10-09T11:44:37;97976.34;;;17.88;93.46
74675;BME280;63200;48.810;12.352;2023-10-09T11:47:05;97992.56;;;17.98;95.57
74675;BME280;63200;48.810;12.352;2023-10-09T11:49:52;97995.00;;;18.00;98.55
74675;BME280;63200;48.810;12.352;2023-10-09T11:52:31;97966.34;;;17.84;100.00
74675;BME280;63200;48.810;12.352;2023-10-09T11:54:58;97983.53;;;18.07;100.00
74675;BME280;63200;48.810;12.352;2023-10-09T11:57:24;97980.44;;;18.08;100.00
74675;BME280;63200;48.810;12.352;2023-10-09T11:59:57;97972.88;;;18.05;100.00
74675;BME280;63200;48.810;12.352;2023-10-09T12:02:23;97965.91;;;18.08;100.00
74675;BME280;63200;48.810;12.352;2023-10-09T12:04:48;97958.16;;;18.01;100.00
74675;BME280;63200;48.810;12.352;2023-10-09T12:07:14;97896.53;;;17.67;100.00
74675;BME280;63200;48.810;12.352;2023-10-09T12:09:40;97937.00;;;17.93;100.00
74675;BME280;63200;48.810;12.352;2023-10-09T12:12:07;97929.03;;;17.82;100.00
74675;BME280;63200;48.810;12.352;2023-10-09T12:14:34;97907.50;;;17.67;100.00
74675;BME280;63200;48.810;12.352;2023-10-09T12:17:04;97906.69;;;17.58;100.00
74675;BME280;63200;48.810;12.352;2023-10-09T12:21:59;97851.69;;;17.14;100.00
74675;BME280;63200;48.810;12.352;2023-10-09T12:24:26;97888.56;;;17.30;100.00
74675;BME280;63200;48.810;12.352;2023-10-09T12:26:51;97892.88;;;17.23;100.00
74675;BME280;63200;48.810;12.352;2023-10-09T12:29:18;97890.75;;;17.20;100.00
74675;BME280;63200;48.810;12.352;2023-10-09T12:31:45;97897.41;;;17.19;100.00
74675;BME280;63200;48.810;12.352;2023-10-09T12:34:10;97870.06;;;17.05;100.00
74675;BME280;63200;48.810;12.352;2023-10-09T12:36:41;97897.41;;;17.19;100.00
74675;BME280;63200;48.810;12.352;2023-10-09T12:39:09;97901.25;;;17.18;100.00
74675;BME280;63200;48.810;12.352;2023-10-09T12:41:42;97894.16;;;17.17;100.00
74675;BME280;63200;48.810;12.352;2023-10-09T12:44:08;97914.97;;;17.18;100.00
74675;BME280;63200;48.810;12.352;2023-10-09T12:46:40;97914.69;;;17.28;100.00
74675;BME280;63200;48.810;12.352;2023-10-09T12:49:05;97921.31;;;17.36;100.00
74675;BME280;63200;48.810;12.352;2023-10-09T12:51:31;97929.13;;;17.42;100.00
74675;BME280;63200;48.810;12.352;2023-10-09T12:53:56;97947.19;;;17.43;100.00
74675;BME280;63200;48.810;12.352;2023-10-09T12:56:25;97947.81;;;17.40;100.00
74675;BME280;63200;48.810;12.352;2023-10-09T12:59:04;97947.31;;;17.38;100.00
74675;BME280;63200;48.810;12.352;2023-10-09T13:01:33;97937.78;;;17.36;100.00
74675;BME280;63200;48.810;12.352;2023-10-09T13:04:13;97923.91;;;17.32;100.00
74675;BME280;63200;48.810;12.352;2023-10-09T13:06:42;97910.50;;;17.30;100.00
74675;BME280;63200;48.810;12.352;2023-10-09T13:09:11;97915.16;;;17.30;100.00
74675;BME280;63200;48.810;12.352;2023-10-09T13:11:36;97926.97;;;17.30;100.00
74675;BME280;63200;48.810;12.352;2023-10-09T13:14:02;97943.25;;;17.27;100.00
74675;BME280;63200;48.810;12.352;2023-10-09T13:16:37;97968.28;;;17.25;100.00
74675;BME280;63200;48.810;12.352;2023-10-09T13:19:02;97993.06;;;17.11;100.00
74675;BME280;63200;48.810;12.352;2023-10-09T13:21:35;98008.34;;;17.04;100.00
74675;BME280;63200;48.810;12.352;2023-10-09T13:24:03;98011.53;;;16.97;100.00
74675;BME280;63200;48.810;12.352;2023-10-09T13:26:29;98010.53;;;16.93;100.00
74675;BME280;63200;48.810;12.352;2023-10-09T13:28:58;98008.72;;;16.88;100.00
74675;BME280;63200;48.810;12.352;2023-10-09T13:31:25;98019.50;;;16.85;100.00
74675;BME280;63200;48.810;12.352;2023-10-09T13:33:54;97962.50;;;16.50;100.00
74675;BME280;63200;48.810;12.352;2023-10-09T13:36:21;97985.16;;;16.64;100.00
74675;BME280;63200;48.810;12.352;2023-10-09T13:38:59;97956.25;;;16.58;100.00
74675;BME280;63200;48.810;12.352;2023-10-09T13:41:43;97907.75;;;16.36;100.00
74675;BME280;63200;48.810;12.352;2023-10-09T13:44:08;97876.94;;;16.30;100.00